createdAt,value
2023-03-15T00:00:01.044Z,97938.20
2023-03-15T00:03:02.794Z,97946.36
2023-03-15T00:06:04.844Z,97951.02
2023-03-15T00:09:06.620Z,97965.60
2023-03-15T00:12:08.611Z,97971.17
2023-03-15T00:15:13.982Z,97984.57
2023-03-15T00:18:16.669Z,97995.22
2023-03-15T00:21:18.197Z,98010.20
2023-03-15T00:24:19.708Z,98023.73
2023-03-15T00:27:21.231Z,98033.05
2023-03-15T00:30:22.874Z,98042.27
2023-03-15T00:33:24.374Z,98054.63
2023-03-15T00:36:25.914Z,98064.26
2023-03-15T00:39:27.759Z,98067.67
2023-03-15T00:42:29.527Z,98076.99
2023-03-15T00:45:31.206Z,98084.39
2023-03-15T00:48:34.034Z,98096.83
2023-03-15T00:51:35.585Z,98099.63
2023-03-15T00:54:37.214Z,98115.58
2023-03-15T00:57:40.641Z,98129.40
2023-03-15T01:00:42.428Z,98138.91
2023-03-15T01:03:45.719Z,98153.98
2023-03-15T01:06:47.427Z,98166.41
2023-03-15T01:09:49.217Z,98176.65
2023-03-15T01:12:51.035Z,98185.98
2023-03-15T01:15:52.630Z,98192.50
2023-03-15T01:18:54.586Z,98198.98
2023-03-15T01:21:56.567Z,98213.54
2023-03-15T01:25:01.210Z,98220.81
2023-03-15T01:28:12.805Z,98226.27
2023-03-15T01:31:18.521Z,98236.92
2023-03-15T01:34:20.713Z,98242.18
2023-03-15T01:37:22.336Z,98254.29
2023-03-15T01:40:24.026Z,98270.18
2023-03-15T01:43:27.717Z,98279.23
2023-03-15T01:46:31.337Z,98295.88
2023-03-15T01:49:33.531Z,98309.56
2023-03-15T01:52:38.001Z,98325.69
2023-03-15T01:55:40.438Z,98343.55
2023-03-15T01:58:43.775Z,98354.99
2023-03-15T02:01:46.000Z,98373.54
2023-03-15T02:05:00.458Z,98387.08
2023-03-15T02:08:02.722Z,98391.42
2023-03-15T02:11:05.538Z,98394.79
2023-03-15T02:14:10.014Z,98403.23
2023-03-15T02:17:11.941Z,98414.34
2023-03-15T02:20:36.532Z,98420.94
2023-03-15T02:23:38.503Z,98429.97
2023-03-15T02:26:44.453Z,98441.33
2023-03-15T02:29:46.082Z,98450.08
2023-03-15T02:32:47.659Z,98460.02
2023-03-15T02:35:49.471Z,98468.80
2023-03-15T02:38:52.378Z,98464.95
2023-03-15T02:41:56.549Z,98465.03
2023-03-15T02:44:58.235Z,98467.08
2023-03-15T02:48:00.241Z,98468.21
2023-03-15T02:51:01.706Z,98478.20
2023-03-15T02:54:03.389Z,98484.77
2023-03-15T02:57:04.998Z,98486.86
2023-03-15T03:00:07.655Z,98492.65
2023-03-15T03:03:09.288Z,98490.39
2023-03-15T03:06:12.305Z,98499.74
2023-03-15T03:09:13.876Z,98505.66
2023-03-15T03:12:15.479Z,98512.94
2023-03-15T03:15:17.211Z,98527.58
2023-03-15T03:18:18.765Z,98538.05
2023-03-15T03:21:20.309Z,98539.45
2023-03-15T03:24:21.896Z,98539.34
2023-03-15T03:27:23.587Z,98541.48
2023-03-15T03:30:25.193Z,98541.67
2023-03-15T03:33:26.784Z,98555.39
2023-03-15T03:36:28.353Z,98560.03
2023-03-15T03:39:30.046Z,98566.41
2023-03-15T03:42:31.562Z,98569.75
2023-03-15T03:45:33.289Z,98566.23
2023-03-15T03:48:35.324Z,98561.85
2023-03-15T03:51:36.951Z,98563.65
2023-03-15T03:54:38.413Z,98572.59
2023-03-15T03:57:43.618Z,98581.40
2023-03-15T04:00:45.388Z,98594.13
2023-03-15T04:03:47.003Z,98600.15
2023-03-15T04:06:48.590Z,98609.11
2023-03-15T04:09:50.189Z,98617.23
2023-03-15T04:12:51.725Z,98613.17
2023-03-15T04:15:53.353Z,98613.73
2023-03-15T04:18:55.020Z,98614.26
2023-03-15T04:21:56.679Z,98621.79
2023-03-15T04:24:58.325Z,98620.46
2023-03-15T04:27:59.907Z,98622.52
2023-03-15T04:31:01.480Z,98624.97
2023-03-15T04:34:03.939Z,98626.89
2023-03-15T04:37:06.067Z,98626.95
2023-03-15T04:40:08.602Z,98632.39
2023-03-15T04:43:10.266Z,98636.35
2023-03-15T04:46:11.773Z,98640.26
2023-03-15T04:49:13.355Z,98643.31
2023-03-15T04:52:14.930Z,98645.23
2023-03-15T04:55:17.126Z,98646.44
2023-03-15T04:58:19.228Z,98645.44
2023-03-15T05:01:23.373Z,98648.38
2023-03-15T05:04:25.012Z,98660.27
2023-03-15T05:07:26.483Z,98668.48
2023-03-15T05:10:28.076Z,98681.89
2023-03-15T05:13:30.137Z,98686.33
2023-03-15T05:16:31.758Z,98689.97
2023-03-15T05:19:33.561Z,98694.23
2023-03-15T05:22:35.137Z,98701.02
2023-03-15T05:25:38.642Z,98706.10
2023-03-15T05:28:40.640Z,98715.37
2023-03-15T05:31:42.634Z,98714.40
2023-03-15T05:34:44.107Z,98712.80
2023-03-15T05:37:45.772Z,98713.72
2023-03-15T05:40:47.406Z,98719.60
2023-03-15T05:43:49.179Z,98726.09
2023-03-15T05:46:50.630Z,98730.08
2023-03-15T05:49:52.545Z,98741.42
2023-03-15T05:52:54.434Z,98749.85
2023-03-15T05:55:56.269Z,98752.93
2023-03-15T05:58:57.863Z,98756.83
2023-03-15T06:01:59.662Z,98757.82
2023-03-15T06:05:01.218Z,98760.02
2023-03-15T06:08:02.963Z,98764.08
2023-03-15T06:11:04.538Z,98768.34
2023-03-15T06:14:06.250Z,98779.25
2023-03-15T06:17:08.004Z,98788.27
2023-03-15T06:20:10.136Z,98794.05
2023-03-15T06:23:11.605Z,98803.05
2023-03-15T06:26:13.184Z,98810.33
2023-03-15T06:29:15.798Z,98819.98
2023-03-15T06:32:17.831Z,98824.86
2023-03-15T06:35:19.598Z,98833.63
2023-03-15T06:38:21.059Z,98837.11
2023-03-15T06:41:22.682Z,98838.10
2023-03-15T06:44:24.253Z,98840.70
2023-03-15T06:47:25.974Z,98843.73
2023-03-15T06:50:29.530Z,98843.67
2023-03-15T06:53:36.338Z,98840.02
2023-03-15T06:56:37.970Z,98837.89
2023-03-15T06:59:39.463Z,98842.08
2023-03-15T07:02:41.145Z,98845.42
2023-03-15T07:05:42.914Z,98848.26
2023-03-15T07:08:44.368Z,98851.77
2023-03-15T07:11:46.349Z,98862.58
2023-03-15T07:14:47.949Z,98867.17
2023-03-15T07:17:49.565Z,98875.86
2023-03-15T07:20:57.749Z,98883.84
2023-03-15T07:23:59.426Z,98889.62
2023-03-15T07:27:01.286Z,98891.13
2023-03-15T07:30:04.601Z,98897.24
2023-03-15T07:33:06.341Z,98895.20
2023-03-15T07:36:09.017Z,98894.30
2023-03-15T07:39:10.575Z,98888.62
2023-03-15T07:42:12.281Z,98887.67
2023-03-15T07:45:13.976Z,98886.50
2023-03-15T07:48:15.656Z,98893.02
2023-03-15T07:51:17.369Z,98893.29
2023-03-15T07:54:18.921Z,98900.24
2023-03-15T07:57:20.542Z,98907.92
2023-03-15T08:00:22.447Z,98912.56
2023-03-15T08:03:24.814Z,98914.27
2023-03-15T08:06:26.345Z,98913.91
2023-03-15T08:09:28.027Z,98914.77
2023-03-15T08:12:29.671Z,98919.20
2023-03-15T08:15:31.351Z,98922.84
2023-03-15T08:18:33.066Z,98924.04
2023-03-15T08:21:34.621Z,98925.31
2023-03-15T08:24:36.301Z,98926.63
2023-03-15T08:27:38.491Z,98928.91
2023-03-15T08:30:40.884Z,98926.38
2023-03-15T08:33:42.727Z,98927.17
2023-03-15T08:36:46.789Z,98926.41
2023-03-15T08:39:48.365Z,98930.05
2023-03-15T08:42:50.007Z,98929.55
2023-03-15T08:46:00.742Z,98937.31
2023-03-15T08:49:03.072Z,98945.09
2023-03-15T08:52:04.680Z,98944.59
2023-03-15T08:55:07.121Z,98950.14
2023-03-15T08:58:08.992Z,98950.35
2023-03-15T09:01:14.616Z,98958.71
2023-03-15T09:04:16.347Z,98958.77
2023-03-15T09:07:18.023Z,98964.37
2023-03-15T09:10:20.512Z,98967.24
2023-03-15T09:13:22.587Z,98967.84
2023-03-15T09:16:24.295Z,98968.74
2023-03-15T09:19:25.757Z,98975.81
2023-03-15T09:22:39.104Z,98975.73
2023-03-15T09:25:41.769Z,98981.95
2023-03-15T09:28:43.456Z,98982.80
2023-03-15T09:31:44.976Z,98984.16
2023-03-15T09:34:46.818Z,98981.48
2023-03-15T09:37:49.875Z,98984.60
2023-03-15T09:40:56.558Z,98986.82
2023-03-15T09:44:07.050Z,98988.42
2023-03-15T09:47:15.769Z,98983.64
2023-03-15T09:50:31.305Z,98987.45
2023-03-15T09:54:05.357Z,98989.38
2023-03-15T09:57:15.068Z,98991.96
2023-03-15T10:00:23.990Z,98992.85
2023-03-15T10:03:48.424Z,99000.29
2023-03-15T10:06:54.813Z,99000.98
2023-03-15T10:09:56.320Z,99006.95
2023-03-15T10:13:08.244Z,99009.24
2023-03-15T10:16:28.587Z,99008.91
2023-03-15T10:19:50.115Z,99014.33
2023-03-15T10:23:09.232Z,99015.62
2023-03-15T10:26:15.682Z,99013.06
2023-03-15T10:29:20.658Z,99022.62
2023-03-15T10:32:26.996Z,99019.44
2023-03-15T10:35:29.123Z,99025.55
2023-03-15T10:38:30.680Z,99030.57
2023-03-15T10:41:42.806Z,99032.90
2023-03-15T10:44:44.534Z,99042.97
2023-03-15T10:47:57.649Z,99044.11
2023-03-15T10:51:06.361Z,99042.02
2023-03-15T10:54:21.324Z,99045.44
2023-03-15T10:57:26.384Z,99045.63
2023-03-15T11:00:34.916Z,99046.90
2023-03-15T11:03:37.997Z,99048.36
2023-03-15T11:06:57.851Z,99043.59
2023-03-15T11:10:01.401Z,99042.63
2023-03-15T11:13:14.553Z,99043.92
2023-03-15T11:16:16.141Z,99033.92
2023-03-15T11:19:18.652Z,99036.61
2023-03-15T11:22:20.210Z,99036.10
2023-03-15T11:25:24.930Z,99036.45
2023-03-15T11:28:30.088Z,99033.32
2023-03-15T11:31:31.912Z,99033.98
2023-03-15T11:34:39.247Z,99032.20
2023-03-15T11:37:58.518Z,99030.51
2023-03-15T11:41:34.846Z,99036.05
2023-03-15T11:44:45.026Z,99030.27
2023-03-15T11:47:51.798Z,99031.67
2023-03-15T11:50:58.092Z,99035.37
2023-03-15T11:54:12.554Z,99038.34
2023-03-15T11:57:29.714Z,99045.87
2023-03-15T12:00:31.284Z,99052.83
2023-03-15T12:03:41.585Z,99055.98
2023-03-15T12:06:43.182Z,99051.42
2023-03-15T12:10:03.313Z,99059.39
2023-03-15T12:13:18.736Z,99061.16
2023-03-15T12:16:22.099Z,99063.80
2023-03-15T12:19:25.193Z,99062.70
2023-03-15T12:22:31.390Z,99062.48
2023-03-15T12:25:49.010Z,99065.30
2023-03-15T12:29:00.399Z,99066.33
2023-03-15T12:32:02.151Z,99066.52
2023-03-15T12:35:16.656Z,99070.29
2023-03-15T12:38:20.714Z,99068.20
2023-03-15T12:41:43.395Z,99065.06
2023-03-15T12:44:45.036Z,99064.30
2023-03-15T12:47:49.484Z,99065.15
2023-03-15T12:50:59.012Z,99063.02
2023-03-15T12:54:00.754Z,99063.23
2023-03-15T12:57:04.341Z,99066.02
2023-03-15T13:00:26.996Z,99070.56
2023-03-15T13:03:28.559Z,99069.39
2023-03-15T13:06:51.817Z,99069.65
2023-03-15T13:10:00.345Z,99073.14
2023-03-15T13:13:23.185Z,99072.52
2023-03-15T13:16:42.696Z,99075.63
2023-03-15T13:19:46.967Z,99075.02
2023-03-15T13:23:07.053Z,99078.36
2023-03-15T13:26:08.727Z,99074.48
2023-03-15T13:29:14.092Z,99074.60
2023-03-15T13:32:18.448Z,99076.14
2023-03-15T13:35:20.209Z,99074.88
2023-03-15T13:38:28.433Z,99078.48
2023-03-15T13:41:30.931Z,99081.77
2023-03-15T13:44:33.381Z,99089.11
2023-03-15T13:47:35.472Z,99095.07
2023-03-15T13:50:37.970Z,99100.05
2023-03-15T13:53:49.437Z,99106.42
2023-03-15T13:57:17.396Z,99105.59
2023-03-15T14:00:19.464Z,99113.58
2023-03-15T14:03:22.063Z,99119.31
2023-03-15T14:06:26.025Z,99120.12
2023-03-15T14:09:27.784Z,99125.39
2023-03-15T14:12:30.437Z,99127.71
2023-03-15T14:15:42.350Z,99130.38
2023-03-15T14:18:44.018Z,99131.42
2023-03-15T14:21:48.353Z,99133.29
2023-03-15T14:24:51.773Z,99134.96
2023-03-15T14:27:53.970Z,99138.84
2023-03-15T14:30:57.988Z,99136.36
2023-03-15T14:34:10.913Z,99135.41
2023-03-15T14:37:39.340Z,99130.53
2023-03-15T14:40:41.554Z,99137.70
2023-03-15T14:43:43.133Z,99137.40
2023-03-15T14:46:44.589Z,99132.59
2023-03-15T14:49:46.178Z,99134.11
2023-03-15T14:52:48.617Z,99139.67
2023-03-15T14:55:50.236Z,99139.73
2023-03-15T14:58:51.832Z,99144.15
2023-03-15T15:01:55.818Z,99143.52
2023-03-15T15:04:57.418Z,99145.25
2023-03-15T15:08:11.851Z,99151.75
2023-03-15T15:11:14.597Z,99153.42
2023-03-15T15:14:16.674Z,99159.48
2023-03-15T15:17:18.363Z,99163.69
2023-03-15T15:20:20.144Z,99167.81
2023-03-15T15:23:21.669Z,99166.33
2023-03-15T15:26:25.639Z,99174.45
2023-03-15T15:29:27.377Z,99175.02
2023-03-15T15:32:28.992Z,99177.88
2023-03-15T15:35:30.802Z,99176.91
2023-03-15T15:38:33.130Z,99171.55
2023-03-15T15:41:34.856Z,99181.04
2023-03-15T15:44:36.339Z,99180.84
2023-03-15T15:47:38.013Z,99183.61
2023-03-15T15:50:39.519Z,99184.95
2023-03-15T15:53:41.099Z,99187.38
2023-03-15T15:56:45.792Z,99196.95
2023-03-15T15:59:47.784Z,99200.04
2023-03-15T16:02:50.427Z,99205.02
2023-03-15T16:05:52.105Z,99205.01
2023-03-15T16:08:54.365Z,99207.95
2023-03-15T16:11:55.969Z,99211.03
2023-03-15T16:14:57.638Z,99217.55
2023-03-15T16:18:01.834Z,99215.00
2023-03-15T16:21:03.936Z,99220.59
2023-03-15T16:24:05.515Z,99225.10
2023-03-15T16:27:08.311Z,99220.89
2023-03-15T16:30:21.484Z,99225.42
2023-03-15T16:33:23.289Z,99226.02
2023-03-15T16:36:24.834Z,99231.91
2023-03-15T16:39:26.683Z,99236.42
2023-03-15T16:42:28.132Z,99243.42
2023-03-15T16:45:29.963Z,99250.20
2023-03-15T16:48:31.508Z,99255.15
2023-03-15T16:51:33.856Z,99262.77
2023-03-15T16:54:41.196Z,99270.73
2023-03-15T16:57:43.347Z,99275.63
2023-03-15T17:00:45.072Z,99277.73
2023-03-15T17:03:46.681Z,99279.73
2023-03-15T17:06:48.475Z,99284.77
2023-03-15T17:09:50.337Z,99291.53
2023-03-15T17:12:52.034Z,99298.14
2023-03-15T17:15:53.665Z,99294.83
2023-03-15T17:18:55.650Z,99300.95
2023-03-15T17:21:57.269Z,99304.30
2023-03-15T17:24:58.842Z,99306.09
2023-03-15T17:28:00.556Z,99311.83
2023-03-15T17:31:23.251Z,99313.98
2023-03-15T17:34:23.723Z,99319.09
2023-03-15T17:37:25.352Z,99317.15
2023-03-15T17:40:29.125Z,99319.44
2023-03-15T17:43:30.806Z,99321.71
2023-03-15T17:46:32.807Z,99329.30
2023-03-15T17:49:34.470Z,99339.48
2023-03-15T17:52:36.186Z,99348.36
2023-03-15T17:55:38.053Z,99348.06
2023-03-15T17:58:39.696Z,99345.70
2023-03-15T18:01:41.464Z,99346.20
2023-03-15T18:04:43.410Z,99345.16
2023-03-15T18:07:57.799Z,99340.39
2023-03-15T18:11:00.309Z,99336.17
2023-03-15T18:14:03.499Z,99339.48
2023-03-15T18:17:05.082Z,99343.92
2023-03-15T18:20:08.911Z,99345.91
2023-03-15T18:23:14.850Z,99340.11
2023-03-15T18:26:17.117Z,99340.01
2023-03-15T18:29:18.710Z,99334.94
2023-03-15T18:32:20.270Z,99331.91
2023-03-15T18:35:26.096Z,99334.20
2023-03-15T18:38:27.767Z,99332.73
2023-03-15T18:41:29.376Z,99332.44
2023-03-15T18:44:31.627Z,99331.66
2023-03-15T18:47:33.441Z,99333.45
2023-03-15T18:50:35.686Z,99334.19
2023-03-15T18:53:37.345Z,99333.19
2023-03-15T18:56:39.143Z,99334.23
2023-03-15T18:59:40.688Z,99338.33
2023-03-15T19:02:45.516Z,99340.09
2023-03-15T19:05:47.468Z,99341.89
2023-03-15T19:08:49.503Z,99343.04
2023-03-15T19:11:51.239Z,99351.83
2023-03-15T19:14:52.892Z,99356.36
2023-03-15T19:17:54.545Z,99357.11
2023-03-15T19:20:56.219Z,99359.55
2023-03-15T19:23:58.358Z,99368.29
2023-03-15T19:27:00.048Z,99371.05
2023-03-15T19:30:01.796Z,99373.79
2023-03-15T19:33:03.976Z,99370.70
2023-03-15T19:36:06.083Z,99370.21
2023-03-15T19:39:07.709Z,99371.77
2023-03-15T19:42:09.242Z,99374.00
2023-03-15T19:45:11.425Z,99376.09
2023-03-15T19:48:15.382Z,99376.00
2023-03-15T19:51:18.077Z,99378.48
2023-03-15T19:54:19.631Z,99385.70
2023-03-15T19:57:21.593Z,99396.14
2023-03-15T20:00:23.886Z,99399.09
2023-03-15T20:03:25.813Z,99402.40
2023-03-15T20:06:27.340Z,99399.77
2023-03-15T20:09:28.878Z,99403.76
2023-03-15T20:12:30.744Z,99402.77
2023-03-15T20:15:32.450Z,99410.11
2023-03-15T20:18:34.078Z,99412.02
2023-03-15T20:21:35.751Z,99414.27
2023-03-15T20:24:37.429Z,99418.20
2023-03-15T20:27:39.198Z,99414.28
2023-03-15T20:30:44.158Z,99421.61
2023-03-15T20:33:48.904Z,99428.27
2023-03-15T20:36:50.766Z,99426.61
2023-03-15T20:39:52.326Z,99422.05
2023-03-15T20:42:54.065Z,99421.41
2023-03-15T20:45:56.875Z,99420.05
2023-03-15T20:48:58.541Z,99417.15
2023-03-15T20:52:00.174Z,99415.65
2023-03-15T20:55:01.828Z,99416.66
2023-03-15T20:58:03.531Z,99417.34
2023-03-15T21:01:07.231Z,99421.61
2023-03-15T21:04:08.866Z,99427.76
2023-03-15T21:07:13.429Z,99428.34
2023-03-15T21:10:15.337Z,99428.89
2023-03-15T21:13:16.974Z,99433.73
2023-03-15T21:16:18.698Z,99439.41
2023-03-15T21:19:23.665Z,99443.05
2023-03-15T21:22:25.387Z,99443.27
2023-03-15T21:25:27.013Z,99447.39
2023-03-15T21:28:29.423Z,99449.98
2023-03-15T21:31:31.210Z,99452.73
2023-03-15T21:34:32.891Z,99454.77
2023-03-15T21:37:34.668Z,99459.02
2023-03-15T21:40:36.173Z,99463.64
2023-03-15T21:43:37.985Z,99461.63
2023-03-15T21:46:39.609Z,99460.29
2023-03-15T21:49:41.217Z,99462.89
2023-03-15T21:52:42.784Z,99463.77
2023-03-15T21:55:44.337Z,99469.95
2023-03-15T21:58:45.837Z,99471.50
2023-03-15T22:01:47.597Z,99474.23
2023-03-15T22:04:49.157Z,99472.70
2023-03-15T22:07:50.793Z,99476.95
2023-03-15T22:10:54.083Z,99482.05
2023-03-15T22:13:55.715Z,99478.30
2023-03-15T22:16:57.341Z,99478.64
2023-03-15T22:19:58.993Z,99486.13
2023-03-15T22:23:00.604Z,99485.60
2023-03-15T22:26:02.177Z,99489.13
2023-03-15T22:29:03.813Z,99490.29
2023-03-15T22:32:06.274Z,99498.26
2023-03-15T22:35:08.151Z,99497.39
2023-03-15T22:38:09.864Z,99497.23
2023-03-15T22:41:11.734Z,99503.52
2023-03-15T22:44:13.307Z,99504.74
2023-03-15T22:47:14.922Z,99511.89
2023-03-15T22:50:16.537Z,99512.21
2023-03-15T22:53:18.199Z,99516.96
2023-03-15T22:56:19.686Z,99518.83
2023-03-15T22:59:21.313Z,99520.67
2023-03-15T23:02:22.778Z,99521.18
2023-03-15T23:05:24.468Z,99522.73
2023-03-15T23:08:26.077Z,99526.80
2023-03-15T23:11:27.740Z,99526.95
2023-03-15T23:14:29.334Z,99534.93
2023-03-15T23:17:30.928Z,99534.06
2023-03-15T23:20:33.146Z,99538.98
2023-03-15T23:23:37.124Z,99539.31
2023-03-15T23:26:38.719Z,99538.76
2023-03-15T23:29:53.276Z,99538.20
2023-03-15T23:32:56.076Z,99541.73
2023-03-15T23:35:57.611Z,99543.73
2023-03-15T23:38:59.374Z,99551.05
2023-03-15T23:42:01.167Z,99552.20
2023-03-15T23:45:02.658Z,99553.20
2023-03-15T23:48:04.492Z,99554.39
2023-03-15T23:51:06.131Z,99556.61
2023-03-15T23:54:07.659Z,99555.05
2023-03-15T23:57:11.848Z,99554.36
